Time;durP1;ratioP1;P1;durP2;ratioP2;P2;SDS_P1;SDS_P2;PMS_P1;PMS_P2;Temp;Humidity;BMP_temperature;BMP_pressure;BME280_temperature;BME280_humidity;BME280_pressure;Samples;Min_cycle;Max_cycle;Signal;HPM_P1;HPM_P2
2022/04/16 00:02:59;;;;;;;18.60;10.23;;;;;;;;;;6123022;29;20032;-81
2022/04/16 00:05:59;;;;;;;12.90;9.15;;;;;;;;;;6105782;29;20473;-81
2022/04/16 00:09:00;;;;;;;14.07;8.23;;;;;;;;;;6105817;29;20110;-81
2022/04/16 00:12:00;;;;;;;12.13;7.25;;;;;;;;;;6126608;29;20109;-81
2022/04/16 00:15:00;;;;;;;11.77;6.97;;;;;;;;;;6145343;29;20020;-81
2022/04/16 00:18:01;;;;;;;10.38;7.32;;;;;;;;;;6129492;29;20325;-80
2022/04/16 00:21:04;;;;;;;13.82;7.03;;;;;;;;;;6129087;29;20023;-80
2022/04/16 00:24:04;;;;;;;14.73;8.77;;;;;;;;;;6145560;28;20483;-80
2022/04/16 00:27:06;;;;;;;12.68;8.32;;;;;;;;;;6129129;29;20051;-80
2022/04/16 00:30:07;;;;;;;13.55;9.25;;;;;;;;;;6146709;29;20074;-80
2022/04/16 00:33:07;;;;;;;14.30;9.90;;;;;;;;;;6129191;29;20031;-81
2022/04/16 00:36:08;;;;;;;14.70;8.77;;;;;;;;;;6148033;29;20388;-80
2022/04/16 00:39:08;;;;;;;15.50;9.77;;;;;;;;;;6146867;29;20023;-80
2022/04/16 00:42:09;;;;;;;18.35;9.65;;;;;;;;;;6129032;29;20275;-80
2022/04/16 00:45:09;;;;;;;17.90;8.20;;;;;;;;;;6146860;29;20572;-80
2022/04/16 00:48:10;;;;;;;13.13;7.55;;;;;;;;;;6128842;29;20062;-80
2022/04/16 00:51:10;;;;;;;10.93;6.65;;;;;;;;;;6148964;28;20063;-80
2022/04/16 00:54:10;;;;;;;12.68;7.45;;;;;;;;;;6151044;28;20047;-79
2022/04/16 00:57:11;;;;;;;10.18;6.47;;;;;;;;;;6150826;29;20055;-80
2022/04/16 01:00:12;;;;;;;8.88;6.28;;;;;;;;;;6132896;29;20015;-80
2022/04/16 01:03:13;;;;;;;13.75;7.63;;;;;;;;;;6150537;29;20031;-80
2022/04/16 01:06:15;;;;;;;13.07;8.05;;;;;;;;;;6150586;29;20098;-81
2022/04/16 01:09:16;;;;;;;10.60;6.90;;;;;;;;;;6133204;29;20026;-81
2022/04/16 01:12:16;;;;;;;10.60;6.75;;;;;;;;;;6149823;29;20027;-81
2022/04/16 01:15:17;;;;;;;11.75;6.78;;;;;;;;;;6132933;28;20115;-81
2022/04/16 01:18:18;;;;;;;15.23;7.05;;;;;;;;;;6149829;29;20027;-81
2022/04/16 01:21:18;;;;;;;11.70;7.10;;;;;;;;;;6148611;29;20398;-81
2022/04/16 01:24:18;;;;;;;10.93;6.87;;;;;;;;;;6135744;28;20033;-81
2022/04/16 01:27:19;;;;;;;12.23;8.07;;;;;;;;;;6161500;28;20286;-82
2022/04/16 01:30:20;;;;;;;12.38;6.90;;;;;;;;;;6132734;29;20267;-82
2022/04/16 01:33:22;;;;;;;16.40;7.77;;;;;;;;;;6132741;29;20034;-80
2022/04/16 01:36:23;;;;;;;;;;;;;;;;;;6150913;29;20318;-82
2022/04/16 01:39:23;;;;;;;13.48;7.95;;;;;;;;;;6149930;29;19907;-81
2022/04/16 01:42:23;;;;;;;13.63;8.63;;;;;;;;;;6149161;29;20027;-81
2022/04/16 01:45:24;;;;;;;14.00;8.80;;;;;;;;;;6149561;29;20295;-81
2022/04/16 01:48:29;;;;;;;18.00;8.88;;;;;;;;;;6149660;29;20054;-81
2022/04/16 01:51:30;;;;;;;15.60;8.93;;;;;;;;;;6131725;29;20058;-81
2022/04/16 01:54:31;;;;;;;15.05;9.45;;;;;;;;;;6132672;28;20122;-81
2022/04/16 01:57:32;;;;;;;13.23;7.30;;;;;;;;;;6132173;29;20068;-81
2022/04/16 02:00:33;;;;;;;13.65;7.60;;;;;;;;;;6149042;29;20061;-81
2022/04/16 02:03:34;;;;;;;13.00;7.57;;;;;;;;;;6148941;28;20031;-81
2022/04/16 02:06:35;;;;;;;10.45;6.68;;;;;;;;;;6132373;29;20024;-81
2022/04/16 02:09:35;;;;;;;13.77;6.77;;;;;;;;;;6149345;29;20020;-81
2022/04/16 02:12:37;;;;;;;8.93;6.15;;;;;;;;;;6131398;29;20117;-81
2022/04/16 02:15:38;;;;;;;11.47;6.63;;;;;;;;;;6131647;29;20039;-81
2022/04/16 02:18:38;;;;;;;12.57;6.18;;;;;;;;;;6134079;29;20960;-80
2022/04/16 02:21:39;;;;;;;13.13;5.93;;;;;;;;;;6148646;29;20020;-80
2022/04/16 02:24:39;;;;;;;9.70;6.43;;;;;;;;;;6131848;28;20275;-79
2022/04/16 02:27:40;;;;;;;12.90;8.60;;;;;;;;;;6148046;29;20434;-79
2022/04/16 02:30:40;;;;;;;13.40;7.65;;;;;;;;;;6148570;29;20080;-80
2022/04/16 02:33:40;;;;;;;14.23;6.85;;;;;;;;;;6130998;29;20502;-79
2022/04/16 02:36:41;;;;;;;11.35;6.60;;;;;;;;;;6148643;29;20030;-79
2022/04/16 02:39:41;;;;;;;14.50;7.53;;;;;;;;;;6138866;29;20023;-79
2022/04/16 02:42:42;;;;;;;12.77;7.20;;;;;;;;;;6132456;29;20024;-79
2022/04/16 02:49:01;;;;;;;11.30;6.60;;;;;;;;;;6124995;29;20065;-80
2022/04/16 02:52:02;;;;;;;10.57;6.43;;;;;;;;;;6139959;29;20029;-80
2022/04/16 02:55:03;;;;;;;14.45;6.40;;;;;;;;;;6130791;29;20023;-80
2022/04/16 02:58:04;;;;;;;11.90;6.70;;;;;;;;;;6148577;29;20011;-80
2022/04/16 03:01:04;;;;;;;10.75;6.68;;;;;;;;;;6148146;29;20015;-80
2022/04/16 03:04:04;;;;;;;13.18;8.20;;;;;;;;;;6148171;29;20510;-80
2022/04/16 03:07:05;;;;;;;12.33;7.70;;;;;;;;;;6130690;29;20019;-80
2022/04/16 03:10:06;;;;;;;15.88;7.15;;;;;;;;;;6147899;29;20255;-80
2022/04/16 03:13:06;;;;;;;13.47;7.60;;;;;;;;;;6147285;28;20260;-80
2022/04/16 03:19:25;;;;;;;6.93;4.00;;;;;;;;;;6147967;29;20023;-81
2022/04/16 03:22:26;;;;;;;6.60;4.47;;;;;;;;;;6147736;29;20078;-81
2022/04/16 03:25:27;;;;;;;9.50;5.07;;;;;;;;;;6148326;28;20278;-80
2022/04/16 03:28:28;;;;;;;7.88;4.65;;;;;;;;;;6130284;29;20601;-80
2022/04/16 03:31:28;;;;;;;6.70;4.47;;;;;;;;;;6147372;29;20464;-78
2022/04/16 03:34:28;;;;;;;9.27;5.40;;;;;;;;;;6146642;29;20058;-78
2022/04/16 03:37:29;;;;;;;7.28;4.85;;;;;;;;;;6146670;29;20271;-77
2022/04/16 03:40:29;;;;;;;14.00;7.80;;;;;;;;;;6146131;29;20020;-78
2022/04/16 03:43:29;;;;;;;10.38;5.95;;;;;;;;;;6129239;29;20259;-77
2022/04/16 03:46:29;;;;;;;9.70;5.10;;;;;;;;;;6146567;29;20070;-77
2022/04/16 03:49:29;;;;;;;7.70;3.67;;;;;;;;;;6146387;29;20467;-78
2022/04/16 03:52:38;;;;;;;9.50;5.17;;;;;;;;;;6146138;29;20023;-78
2022/04/16 04:02:15;;;;;;;7.20;3.67;;;;;;;;;;6146033;29;20487;-78
2022/04/16 04:05:16;;;;;;;5.80;2.63;;;;;;;;;;6144667;29;20046;-78
2022/04/16 04:08:16;;;;;;;6.90;3.10;;;;;;;;;;6146330;29;20295;-77
2022/04/16 04:11:17;;;;;;;6.38;3.22;;;;;;;;;;6146181;29;20371;-78
2022/04/16 04:14:17;;;;;;;8.40;4.18;;;;;;;;;;6146266;29;20426;-78
2022/04/16 04:17:17;;;;;;;13.87;5.30;;;;;;;;;;6146053;28;20047;-76
2022/04/16 04:20:17;;;;;;;13.52;7.05;;;;;;;;;;6145893;29;20266;-77
2022/04/16 04:23:19;;;;;;;16.92;9.15;;;;;;;;;;6130949;28;20602;-78
2022/04/16 04:26:19;;;;;;;15.55;8.05;;;;;;;;;;6149553;28;20047;-79
2022/04/16 04:29:19;;;;;;;19.00;8.03;;;;;;;;;;6151177;29;20050;-78
2022/04/16 04:32:19;;;;;;;15.43;8.07;;;;;;;;;;6150303;29;20715;-78
2022/04/16 04:35:19;;;;;;;17.77;8.43;;;;;;;;;;6150435;29;20634;-82
2022/04/16 04:38:20;;;;;;;19.70;9.53;;;;;;;;;;6151291;29;20267;-82
2022/04/16 04:41:20;;;;;;;15.70;9.00;;;;;;;;;;6150656;29;20266;-81
2022/04/16 04:44:20;;;;;;;22.85;10.20;;;;;;;;;;6133362;29;20498;-81
2022/04/16 04:47:21;;;;;;;24.90;11.57;;;;;;;;;;6150942;29;20534;-82
2022/04/16 04:50:21;;;;;;;19.80;9.98;;;;;;;;;;6148853;29;20027;-83
2022/04/16 04:53:21;;;;;;;24.83;11.52;;;;;;;;;;6148690;29;20385;-82
2022/04/16 04:56:21;;;;;;;21.47;10.17;;;;;;;;;;6150723;28;20523;-82
2022/04/16 04:59:22;;;;;;;24.70;12.67;;;;;;;;;;6150439;29;20813;-80
2022/04/16 05:02:22;;;;;;;22.75;10.32;;;;;;;;;;6129841;29;20263;-79
2022/04/16 05:05:22;;;;;;;28.85;13.20;;;;;;;;;;6148672;29;20102;-78
2022/04/16 05:08:22;;;;;;;25.40;12.50;;;;;;;;;;6146503;28;20023;-76
2022/04/16 05:11:22;;;;;;;27.60;14.30;;;;;;;;;;6130532;29;20353;-76
2022/04/16 05:14:23;;;;;;;22.65;12.35;;;;;;;;;;6146128;29;20338;-76
2022/04/16 05:17:23;;;;;;;24.15;13.10;;;;;;;;;;6147525;29;20099;-75
2022/04/16 05:20:24;;;;;;;28.15;15.60;;;;;;;;;;6125630;29;20030;-76
2022/04/16 05:23:24;;;;;;;20.98;15.70;;;;;;;;;;6130285;29;20016;-75
2022/04/16 05:26:25;;;;;;;29.83;18.02;;;;;;;;;;6149730;28;20050;-74
2022/04/16 05:29:25;;;;;;;28.45;16.73;;;;;;;;;;6147493;29;20046;-75
2022/04/16 05:32:31;;;;;;;26.05;15.20;;;;;;;;;;6145576;29;20019;-74
2022/04/16 05:35:32;;;;;;;24.90;14.88;;;;;;;;;;6147644;28;20031;-74
2022/04/16 05:38:33;;;;;;;27.42;16.95;;;;;;;;;;6147691;29;20027;-74
2022/04/16 05:41:33;;;;;;;31.67;18.15;;;;;;;;;;6132427;28;20023;-74
2022/04/16 05:44:33;;;;;;;30.73;16.67;;;;;;;;;;6149150;29;20410;-74
2022/04/16 05:47:33;;;;;;;29.25;16.58;;;;;;;;;;6147670;28;20023;-74
2022/04/16 05:50:34;;;;;;;30.38;18.35;;;;;;;;;;6148246;28;20394;-74
2022/04/16 05:53:34;;;;;;;34.13;18.05;;;;;;;;;;6147428;28;20027;-74
2022/04/16 05:56:35;;;;;;;30.63;15.68;;;;;;;;;;6147554;28;20059;-74
2022/04/16 05:59:35;;;;;;;37.05;19.20;;;;;;;;;;6146861;29;20023;-74
2022/04/16 06:02:35;;;;;;;48.75;23.10;;;;;;;;;;6145956;28;20027;-73
2022/04/16 06:05:36;;;;;;;41.60;22.00;;;;;;;;;;6153075;28;20030;-73
2022/04/16 06:08:36;;;;;;;46.15;20.92;;;;;;;;;;6157854;28;20281;-73
2022/04/16 06:11:37;;;;;;;46.85;22.33;;;;;;;;;;6142675;29;20130;-73
2022/04/16 06:14:37;;;;;;;35.90;20.48;;;;;;;;;;6128579;29;20031;-73
2022/04/16 06:17:37;;;;;;;32.72;19.00;;;;;;;;;;6147733;29;20483;-73
2022/04/16 06:20:38;;;;;;;41.73;22.80;;;;;;;;;;6148716;29;20031;-73
2022/04/16 06:23:38;;;;;;;39.13;19.40;;;;;;;;;;6148812;29;20735;-73
2022/04/16 06:26:38;;;;;;;33.08;18.98;;;;;;;;;;6137454;28;20117;-73
2022/04/16 06:29:38;;;;;;;37.63;20.42;;;;;;;;;;6172101;28;20038;-73
2022/04/16 06:32:39;;;;;;;37.45;18.92;;;;;;;;;;6168551;28;20031;-73
2022/04/16 06:35:39;;;;;;;31.42;17.77;;;;;;;;;;6147688;29;20034;-73
2022/04/16 06:38:39;;;;;;;31.40;16.52;;;;;;;;;;6146966;29;20054;-74
2022/04/16 06:41:40;;;;;;;25.43;15.10;;;;;;;;;;6154039;28;20027;-74
2022/04/16 06:44:40;;;;;;;28.10;15.67;;;;;;;;;;6171781;28;20343;-73
2022/04/16 06:47:40;;;;;;;32.63;17.63;;;;;;;;;;6135075;28;20357;-73
2022/04/16 06:50:40;;;;;;;35.07;18.17;;;;;;;;;;6130301;28;20279;-73
2022/04/16 06:53:40;;;;;;;31.03;20.27;;;;;;;;;;6146417;29;20278;-73
2022/04/16 06:56:41;;;;;;;22.90;13.88;;;;;;;;;;6147768;28;20318;-74
2022/04/16 06:59:42;;;;;;;22.65;13.43;;;;;;;;;;6130057;29;20033;-73
2022/04/16 07:02:42;;;;;;;30.17;16.02;;;;;;;;;;6142010;28;20433;-73
2022/04/16 07:05:42;;;;;;;23.77;12.83;;;;;;;;;;6171271;28;20345;-73
2022/04/16 07:08:42;;;;;;;25.33;13.80;;;;;;;;;;6171664;28;20269;-73
2022/04/16 07:11:43;;;;;;;20.67;12.63;;;;;;;;;;6128473;28;20723;-73
2022/04/16 07:14:43;;;;;;;48.27;29.63;;;;;;;;;;6142706;28;20289;-73
2022/04/16 07:17:45;;;;;;;48.17;28.90;;;;;;;;;;6143367;28;20717;-73
2022/04/16 07:20:45;;;;;;;37.63;18.35;;;;;;;;;;6144462;29;20011;-73
2022/04/16 07:23:45;;;;;;;40.55;20.63;;;;;;;;;;6144016;29;20411;-73
2022/04/16 07:26:47;;;;;;;42.83;21.80;;;;;;;;;;6117269;29;20051;-73
2022/04/16 07:29:48;;;;;;;35.17;18.48;;;;;;;;;;6118779;29;20374;-73
2022/04/16 07:32:49;;;;;;;41.63;20.10;;;;;;;;;;6118240;29;20261;-73
2022/04/16 07:35:49;;;;;;;31.02;18.33;;;;;;;;;;6116879;29;20403;-73
2022/04/16 07:38:50;;;;;;;38.35;22.02;;;;;;;;;;6120142;29;20030;-73
2022/04/16 07:41:51;;;;;;;42.97;23.53;;;;;;;;;;6119898;29;20060;-73
2022/04/16 07:44:51;;;;;;;35.95;20.35;;;;;;;;;;6121295;29;20798;-74
2022/04/16 07:47:51;;;;;;;42.38;23.33;;;;;;;;;;6121443;29;20107;-73
2022/04/16 07:50:51;;;;;;;42.78;23.50;;;;;;;;;;6120917;29;20034;-73
2022/04/16 07:53:52;;;;;;;43.05;24.30;;;;;;;;;;6120587;29;20457;-74
2022/04/16 07:56:52;;;;;;;34.17;20.42;;;;;;;;;;6120455;29;20107;-74
2022/04/16 07:59:54;;;;;;;37.40;22.67;;;;;;;;;;6120204;29;20016;-74
2022/04/16 08:02:54;;;;;;;40.78;24.35;;;;;;;;;;6120863;29;20028;-74
2022/04/16 08:05:54;;;;;;;45.40;23.73;;;;;;;;;;6121112;29;20078;-74
2022/04/16 08:09:00;;;;;;;29.37;20.47;;;;;;;;;;6119622;29;20076;-74
2022/04/16 08:12:01;;;;;;;46.20;26.80;;;;;;;;;;6119621;29;20650;-74
2022/04/16 08:15:01;;;;;;;38.10;25.17;;;;;;;;;;6119718;29;20034;-74
2022/04/16 08:18:01;;;;;;;34.87;19.87;;;;;;;;;;6120960;29;20031;-74
2022/04/16 08:21:02;;;;;;;26.30;19.85;;;;;;;;;;6121256;29;20283;-74
2022/04/16 08:24:13;;;;;;;32.10;19.98;;;;;;;;;;6119839;29;20027;-74
2022/04/16 08:27:13;;;;;;;27.42;18.70;;;;;;;;;;6133884;29;20519;-74
2022/04/16 08:30:14;;;;;;;27.52;17.45;;;;;;;;;;6146007;29;20027;-74
2022/04/16 08:33:15;;;;;;;24.10;16.13;;;;;;;;;;6128292;29;20483;-74
2022/04/16 08:36:15;;;;;;;18.08;13.68;;;;;;;;;;6143726;29;20114;-74
2022/04/16 08:39:16;;;;;;;20.05;13.77;;;;;;;;;;6145113;29;20027;-74
2022/04/16 08:42:16;;;;;;;19.40;12.57;;;;;;;;;;6145540;29;20032;-74
2022/04/16 08:45:17;;;;;;;14.63;11.98;;;;;;;;;;6125562;29;20294;-75
2022/04/16 08:48:18;;;;;;;17.85;10.85;;;;;;;;;;6145078;29;20494;-75
2022/04/16 08:51:19;;;;;;;18.52;10.55;;;;;;;;;;6124948;29;20024;-74
2022/04/16 08:54:20;;;;;;;15.53;9.80;;;;;;;;;;6143763;28;20031;-74
2022/04/16 08:57:20;;;;;;;13.35;9.10;;;;;;;;;;6143724;29;20391;-74
2022/04/16 09:00:20;;;;;;;14.30;9.35;;;;;;;;;;6143030;29;20407;-74
2022/04/16 09:03:20;;;;;;;15.55;9.02;;;;;;;;;;6124765;29;20510;-75
2022/04/16 09:06:23;;;;;;;13.70;7.80;;;;;;;;;;6143429;28;20105;-75
2022/04/16 09:09:23;;;;;;;;;;;;;;;;;;6151310;28;20545;-75
2022/04/16 09:12:23;;;;;;;13.80;8.85;;;;;;;;;;6160757;28;20370;-75
2022/04/16 09:15:24;;;;;;;12.10;7.03;;;;;;;;;;6136007;28;20544;-75
2022/04/16 09:18:24;;;;;;;13.95;8.65;;;;;;;;;;6163862;28;20780;-76
2022/04/16 09:21:26;;;;;;;25.17;14.13;;;;;;;;;;6153904;28;20022;-75
2022/04/16 09:24:26;;;;;;;23.77;12.00;;;;;;;;;;6142394;28;20034;-75
2022/04/16 09:27:27;;;;;;;10.70;6.27;;;;;;;;;;6134919;28;20121;-75
2022/04/16 09:30:29;;;;;;;11.73;6.97;;;;;;;;;;6124108;29;20283;-75
2022/04/16 09:33:29;;;;;;;;;;;;;;;;;;6124649;29;20027;-75
2022/04/16 09:36:29;;;;;;;8.63;5.05;;;;;;;;;;6146716;29;20013;-75
2022/04/16 09:39:30;;;;;;;9.57;5.95;;;;;;;;;;6146860;29;20035;-75
2022/04/16 09:42:30;;;;;;;8.63;4.93;;;;;;;;;;6143504;29;20054;-76
2022/04/16 09:45:31;;;;;;;10.03;6.10;;;;;;;;;;6129875;29;20031;-76
2022/04/16 09:48:32;;;;;;;10.93;5.90;;;;;;;;;;6147440;28;20321;-76
2022/04/16 09:51:35;;;;;;;9.57;6.03;;;;;;;;;;6147224;28;20022;-76
2022/04/16 09:54:35;;;;;;;9.45;5.82;;;;;;;;;;6148490;28;20122;-77
2022/04/16 09:57:40;;;;;;;13.45;6.45;;;;;;;;;;6147263;29;20027;-76
2022/04/16 10:00:41;;;;;;;11.18;6.32;;;;;;;;;;6147749;29;20051;-76
2022/04/16 10:03:42;;;;;;;10.27;7.10;;;;;;;;;;6146098;28;20301;-77
2022/04/16 10:06:43;;;;;;;14.48;7.35;;;;;;;;;;6151962;28;20031;-76
2022/04/16 10:09:45;;;;;;;13.90;8.20;;;;;;;;;;6144691;29;20023;-76
2022/04/16 10:13:03;;;;;;;10.35;6.55;;;;;;;;;;6143807;28;20034;-75
2022/04/16 10:16:07;;;;;;;7.68;4.57;;;;;;;;;;6144257;28;20422;-75
2022/04/16 10:19:16;;;;;;;9.40;4.93;;;;;;;;;;6148744;29;20031;-75
2022/04/16 10:22:24;;;;;;;6.85;4.15;;;;;;;;;;6148120;28;20075;-76
2022/04/16 10:25:32;;;;;;;5.43;3.47;;;;;;;;;;6129485;28;20109;-77
2022/04/16 10:28:36;;;;;;;6.90;3.63;;;;;;;;;;6145664;29;20054;-76
2022/04/16 10:31:47;;;;;;;9.57;4.53;;;;;;;;;;6145875;29;20454;-77
2022/04/16 10:34:47;;;;;;;7.07;3.70;;;;;;;;;;6147810;29;20035;-77
2022/04/16 10:37:54;;;;;;;6.55;4.55;;;;;;;;;;6146301;29;20027;-77
2022/04/16 10:40:58;;;;;;;10.43;5.22;;;;;;;;;;6131317;29;20086;-77
2022/04/16 10:44:00;;;;;;;4.70;3.15;;;;;;;;;;6146453;29;20062;-76
2022/04/16 10:47:03;;;;;;;5.32;2.85;;;;;;;;;;6147529;29;20039;-77
2022/04/16 10:50:17;;;;;;;5.93;2.80;;;;;;;;;;6147261;29;20031;-76
2022/04/16 10:53:25;;;;;;;4.55;2.47;;;;;;;;;;6123433;29;20506;-76
2022/04/16 10:56:29;;;;;;;10.45;4.43;;;;;;;;;;6141862;28;20131;-76
2022/04/16 10:59:37;;;;;;;7.88;3.08;;;;;;;;;;6144062;29;20545;-76
2022/04/16 11:02:38;;;;;;;5.95;3.28;;;;;;;;;;6141710;29;20039;-77
2022/04/16 11:05:41;;;;;;;6.22;3.25;;;;;;;;;;6121497;28;20054;-76
2022/04/16 11:08:42;;;;;;;7.70;3.20;;;;;;;;;;6126147;29;20031;-76
2022/04/16 11:11:43;;;;;;;4.57;2.47;;;;;;;;;;6141440;28;20038;-76
2022/04/16 11:14:45;;;;;;;9.32;3.47;;;;;;;;;;6139836;29;20023;-77
2022/04/16 11:17:45;;;;;;;;;;;;;;;;;;6140019;29;20027;-76
2022/04/16 11:21:09;;;;;;;8.60;3.20;;;;;;;;;;6138501;29;19947;-76
2022/04/16 11:24:10;;;;;;;4.93;3.08;;;;;;;;;;6127919;28;20545;-76
2022/04/16 11:37:07;;;;;;;4.70;1.77;;;;;;;;;;6140486;29;20498;-76
2022/04/16 11:40:08;;;;;;;3.45;2.03;;;;;;;;;;6141672;29;20034;-76
2022/04/16 11:43:12;;;;;;;4.23;1.97;;;;;;;;;;6123002;29;20015;-76
2022/04/16 11:46:12;;;;;;;3.47;1.95;;;;;;;;;;6141640;29;20487;-76
2022/04/16 11:49:13;;;;;;;3.92;2.33;;;;;;;;;;6135375;28;20074;-76
2022/04/16 11:52:13;;;;;;;6.75;2.50;;;;;;;;;;6139057;28;20039;-76
2022/04/16 11:55:14;;;;;;;4.28;1.70;;;;;;;;;;6142055;28;20098;-76
2022/04/16 11:58:15;;;;;;;7.10;2.08;;;;;;;;;;6141861;29;20094;-76
2022/04/16 12:01:18;;;;;;;6.38;2.30;;;;;;;;;;6126590;29;20027;-76
2022/04/16 12:04:19;;;;;;;8.27;4.10;;;;;;;;;;6142245;29;20327;-76
2022/04/16 12:07:24;;;;;;;5.50;2.40;;;;;;;;;;6126628;29;20023;-76
2022/04/16 12:10:25;;;;;;;6.30;2.63;;;;;;;;;;6142528;29;20061;-76
2022/04/16 12:13:32;;;;;;;5.57;2.33;;;;;;;;;;6142015;29;20023;-76
2022/04/16 12:16:37;;;;;;;4.57;1.90;;;;;;;;;;6142760;29;20457;-76
2022/04/16 12:19:40;;;;;;;3.08;1.90;;;;;;;;;;6141940;29;20031;-76
2022/04/16 12:22:59;;;;;;;2.88;2.15;;;;;;;;;;6136634;28;20030;-76
2022/04/16 12:26:04;;;;;;;4.78;2.47;;;;;;;;;;6125492;28;20074;-76
2022/04/16 12:29:08;;;;;;;5.20;2.25;;;;;;;;;;6140883;29;20416;-76
2022/04/16 12:32:09;;;;;;;6.97;2.90;;;;;;;;;;6140889;29;20027;-76
2022/04/16 12:35:09;;;;;;;2.95;1.73;;;;;;;;;;6123856;29;20030;-76
2022/04/16 12:38:14;;;;;;;4.03;2.07;;;;;;;;;;6143394;29;20028;-76
2022/04/16 12:41:17;;;;;;;5.35;2.70;;;;;;;;;;6144535;29;20349;-77
2022/04/16 12:44:18;;;;;;;2.53;1.60;;;;;;;;;;6144043;29;20030;-77
2022/04/16 12:47:18;;;;;;;2.97;2.13;;;;;;;;;;6147855;28;20027;-77
2022/04/16 12:50:19;;;;;;;2.60;1.77;;;;;;;;;;6150483;29;20414;-77
2022/04/16 12:53:19;;;;;;;4.80;1.88;;;;;;;;;;6150574;29;20746;-77
2022/04/16 12:56:19;;;;;;;5.20;2.47;;;;;;;;;;6150499;28;20581;-77
2022/04/16 12:59:20;;;;;;;3.77;2.47;;;;;;;;;;6148635;28;20475;-77
2022/04/16 13:02:20;;;;;;;5.80;1.93;;;;;;;;;;6132225;28;20019;-77
2022/04/16 13:05:20;;;;;;;6.65;3.03;;;;;;;;;;6149168;29;20031;-77
2022/04/16 13:08:21;;;;;;;3.70;2.00;;;;;;;;;;6148250;29;20035;-77
2022/04/16 13:11:21;;;;;;;5.33;2.43;;;;;;;;;;6146348;29;20132;-77
2022/04/16 13:14:22;;;;;;;5.27;2.50;;;;;;;;;;6147117;29;20031;-77
2022/04/16 13:17:22;;;;;;;7.33;2.67;;;;;;;;;;6130828;29;20023;-77
2022/04/16 13:20:22;;;;;;;4.10;3.53;;;;;;;;;;6146793;28;20067;-77
2022/04/16 13:23:23;;;;;;;4.43;2.63;;;;;;;;;;6148934;29;20024;-77
2022/04/16 13:26:23;;;;;;;5.47;3.20;;;;;;;;;;6148423;28;20063;-77
2022/04/16 13:29:23;;;;;;;5.07;1.73;;;;;;;;;;6133759;29;20098;-77
2022/04/16 13:32:24;;;;;;;4.87;1.87;;;;;;;;;;6147840;29;20110;-77
2022/04/16 13:35:24;;;;;;;2.57;1.53;;;;;;;;;;6147409;29;20490;-78
2022/04/16 13:38:24;;;;;;;4.90;2.70;;;;;;;;;;6148398;29;20024;-77
2022/04/16 13:41:40;;;;;;;11.03;5.53;;;;;;;;;;6147208;28;20015;-77
2022/04/16 13:44:41;;;;;;;5.97;2.33;;;;;;;;;;6150761;28;20027;-77
2022/04/16 13:47:41;;;;;;;3.03;2.33;;;;;;;;;;6148790;28;20026;-77
2022/04/16 13:50:41;;;;;;;3.87;2.20;;;;;;;;;;6139618;28;20502;-77
2022/04/16 13:53:42;;;;;;;5.97;3.07;;;;;;;;;;6141972;29;20071;-77
2022/04/16 13:56:42;;;;;;;4.77;2.37;;;;;;;;;;6149770;28;20038;-77
2022/04/16 13:59:42;;;;;;;4.03;1.90;;;;;;;;;;6146804;29;20500;-77
2022/04/16 14:02:43;;;;;;;2.45;1.55;;;;;;;;;;6125325;29;20294;-78
2022/04/16 14:05:43;;;;;;;4.83;2.07;;;;;;;;;;6124824;29;20027;-77
2022/04/16 14:08:44;;;;;;;6.68;3.42;;;;;;;;;;6144868;29;20054;-77
2022/04/16 14:11:45;;;;;;;6.50;2.93;;;;;;;;;;6147996;28;20023;-77
2022/04/16 14:14:45;;;;;;;4.60;1.95;;;;;;;;;;6148393;29;20106;-77
2022/04/16 14:17:45;;;;;;;4.72;2.53;;;;;;;;;;6148557;29;20372;-77
2022/04/16 14:20:46;;;;;;;4.13;2.20;;;;;;;;;;6132638;28;20027;-77
2022/04/16 14:23:46;;;;;;;4.53;2.03;;;;;;;;;;6129801;28;20282;-77
2022/04/16 14:26:46;;;;;;;7.55;3.53;;;;;;;;;;6147370;28;20521;-77
2022/04/16 14:29:49;;;;;;;7.95;3.35;;;;;;;;;;6147862;28;20578;-77
2022/04/16 14:32:50;;;;;;;9.82;3.53;;;;;;;;;;6146882;29;20031;-77
2022/04/16 14:35:50;;;;;;;7.20;2.28;;;;;;;;;;6128784;29;20495;-78
2022/04/16 14:38:50;;;;;;;3.58;1.73;;;;;;;;;;6145089;29;20411;-78
2022/04/16 14:41:51;;;;;;;5.93;2.00;;;;;;;;;;6136324;28;20073;-78
2022/04/16 14:44:52;;;;;;;3.83;2.13;;;;;;;;;;6171638;28;20321;-77
2022/04/16 14:47:52;;;;;;;6.00;2.13;;;;;;;;;;6139875;28;20027;-78
2022/04/16 14:50:53;;;;;;;10.83;4.10;;;;;;;;;;6144409;28;20038;-78
2022/04/16 14:53:53;;;;;;;2.53;2.10;;;;;;;;;;6144386;29;20027;-77
2022/04/16 14:56:53;;;;;;;4.13;1.55;;;;;;;;;;6128974;29;20549;-77
2022/04/16 14:59:54;;;;;;;4.70;2.25;;;;;;;;;;6144241;29;20496;-77
2022/04/16 15:02:54;;;;;;;5.57;2.95;;;;;;;;;;6143291;29;20063;-78
2022/04/16 15:05:55;;;;;;;4.47;2.47;;;;;;;;;;6147631;29;20031;-78
2022/04/16 15:08:56;;;;;;;6.00;2.95;;;;;;;;;;6128580;28;20031;-78
2022/04/16 15:11:56;;;;;;;4.00;3.13;;;;;;;;;;6125001;29;20086;-78
2022/04/16 15:14:56;;;;;;;5.60;2.33;;;;;;;;;;6129409;28;20367;-78
2022/04/16 15:17:57;;;;;;;2.60;2.37;;;;;;;;;;6121637;29;20531;-78
2022/04/16 15:20:57;;;;;;;8.83;2.73;;;;;;;;;;6138908;29;20263;-77
2022/04/16 15:23:57;;;;;;;3.85;2.08;;;;;;;;;;6124770;28;20719;-77
2022/04/16 15:26:57;;;;;;;5.53;2.78;;;;;;;;;;6144476;28;20070;-78
2022/04/16 15:29:58;;;;;;;5.43;2.70;;;;;;;;;;6130930;29;20023;-78
2022/04/16 15:32:58;;;;;;;4.15;2.50;;;;;;;;;;6143195;29;20297;-78
2022/04/16 15:35:58;;;;;;;4.63;2.50;;;;;;;;;;6121287;29;20082;-78
2022/04/16 15:38:59;;;;;;;3.73;2.10;;;;;;;;;;6138229;29;20494;-78
2022/04/16 15:42:00;;;;;;;5.65;2.67;;;;;;;;;;6136785;29;20775;-78
2022/04/16 15:45:00;;;;;;;7.93;2.58;;;;;;;;;;6136570;29;20023;-78
2022/04/16 15:48:01;;;;;;;5.10;2.90;;;;;;;;;;6136362;29;20035;-78
2022/04/16 15:51:01;;;;;;;7.90;2.80;;;;;;;;;;6138661;29;20309;-78
2022/04/16 15:54:01;;;;;;;5.43;2.63;;;;;;;;;;6136282;28;20270;-78
2022/04/16 15:57:02;;;;;;;6.00;2.97;;;;;;;;;;6129433;29;20043;-78
2022/04/16 16:00:05;;;;;;;8.55;3.65;;;;;;;;;;6137657;29;20258;-78
2022/04/16 16:03:05;;;;;;;9.60;3.55;;;;;;;;;;6121974;29;20023;-78
2022/04/16 16:06:06;;;;;;;8.30;4.00;;;;;;;;;;6123591;29;20034;-78
2022/04/16 16:09:06;;;;;;;7.22;2.85;;;;;;;;;;6117078;29;20293;-78
2022/04/16 16:12:06;;;;;;;7.33;2.50;;;;;;;;;;6134935;29;20435;-78
2022/04/16 16:15:07;;;;;;;6.38;3.00;;;;;;;;;;6132597;28;20750;-78
2022/04/16 16:18:07;;;;;;;16.05;5.70;;;;;;;;;;6132174;29;20488;-77
2022/04/16 16:21:07;;;;;;;6.80;3.63;;;;;;;;;;6134119;28;20023;-78
2022/04/16 16:24:08;;;;;;;8.32;3.15;;;;;;;;;;6138193;28;20349;-77
2022/04/16 16:27:08;;;;;;;11.85;5.40;;;;;;;;;;6138159;28;20051;-78
2022/04/16 16:30:09;;;;;;;6.15;2.42;;;;;;;;;;6123506;29;20059;-78
2022/04/16 16:33:09;;;;;;;7.53;3.40;;;;;;;;;;6145673;29;20027;-78
2022/04/16 16:36:09;;;;;;;5.13;3.08;;;;;;;;;;6131607;29;20414;-78
2022/04/16 16:39:10;;;;;;;8.52;3.35;;;;;;;;;;6150008;28;20027;-78
2022/04/16 16:42:10;;;;;;;9.65;4.15;;;;;;;;;;6147445;28;20027;-78
2022/04/16 16:45:12;;;;;;;7.82;2.70;;;;;;;;;;6152372;28;20019;-78
2022/04/16 16:48:12;;;;;;;7.67;4.10;;;;;;;;;;6149243;28;20023;-78
2022/04/16 16:51:12;;;;;;;9.43;4.13;;;;;;;;;;6142031;28;20026;-78
2022/04/16 16:54:14;;;;;;;8.57;4.00;;;;;;;;;;6147709;28;20282;-78
2022/04/16 16:57:16;;;;;;;17.33;8.55;;;;;;;;;;6145554;28;20267;-78
2022/04/16 17:00:17;;;;;;;12.82;6.13;;;;;;;;;;6147024;29;20015;-78
2022/04/16 17:06:36;;;;;;;10.02;4.63;;;;;;;;;;6148651;28;20027;-78
2022/04/16 17:09:36;;;;;;;11.35;5.45;;;;;;;;;;6144244;29;20034;-78
2022/04/16 17:12:37;;;;;;;8.23;3.50;;;;;;;;;;6143001;29;20023;-78
2022/04/16 17:18:56;;;;;;;10.30;4.43;;;;;;;;;;6145045;29;20031;-78
2022/04/16 17:21:57;;;;;;;12.20;4.00;;;;;;;;;;6146109;29;20023;-78
2022/04/16 17:24:58;;;;;;;10.57;4.20;;;;;;;;;;6139462;28;20263;-78
2022/04/16 17:27:58;;;;;;;8.88;4.68;;;;;;;;;;6128224;29;20134;-78
2022/04/16 17:30:58;;;;;;;9.80;4.30;;;;;;;;;;6146502;29;20106;-78
2022/04/16 17:33:59;;;;;;;14.90;5.20;;;;;;;;;;6128908;29;20332;-79
2022/04/16 17:36:59;;;;;;;11.40;5.18;;;;;;;;;;6130706;29;20050;-79
2022/04/16 17:39:59;;;;;;;9.48;4.15;;;;;;;;;;6147633;29;20570;-78
2022/04/16 17:43:00;;;;;;;7.03;3.47;;;;;;;;;;6147860;29;20114;-78
2022/04/16 17:46:01;;;;;;;11.90;4.18;;;;;;;;;;6147499;29;20038;-78
2022/04/16 17:49:02;;;;;;;6.83;3.60;;;;;;;;;;6147934;29;20036;-78
2022/04/16 17:52:03;;;;;;;9.38;4.32;;;;;;;;;;6147302;29;20271;-79
2022/04/16 17:55:03;;;;;;;9.70;4.55;;;;;;;;;;6147216;28;20085;-79
2022/04/16 17:58:04;;;;;;;12.27;5.15;;;;;;;;;;6129866;29;20022;-79
2022/04/16 18:01:05;;;;;;;12.90;5.80;;;;;;;;;;6137202;28;20090;-79
2022/04/16 18:04:05;;;;;;;11.27;5.15;;;;;;;;;;6124528;29;20016;-79
2022/04/16 18:07:05;;;;;;;11.93;5.30;;;;;;;;;;6135874;29;20139;-79
2022/04/16 18:10:06;;;;;;;19.05;7.60;;;;;;;;;;6129147;28;20261;-79
2022/04/16 18:13:07;;;;;;;15.50;7.30;;;;;;;;;;6147342;28;20029;-79
2022/04/16 18:16:07;;;;;;;19.25;9.68;;;;;;;;;;6128735;29;20751;-79
2022/04/16 18:19:08;;;;;;;14.10;6.55;;;;;;;;;;6129169;29;20110;-79
2022/04/16 18:22:09;;;;;;;21.60;8.90;;;;;;;;;;6146739;29;20015;-79
2022/04/16 18:25:09;;;;;;;22.15;8.90;;;;;;;;;;6131317;29;20050;-79